Latest Coastal Weather Observations for Darwin Airport

IDD60701

Issued at 1:41 pm CST Thursday 19 September 2019 (issued every 10 minutes, with the page automatically refreshed every 10 minutes)

About coastal observations | Map of coastal stations | Coastal observations for NT | Marine services | Other Formats
Station Details ID: 014015 Name: DARWIN AIRPORT Lat: -12.42 Lon: 130.89 Height: 30.4 m
Data from the previous 72 hours. | See also: Recent months at Darwin Airport
Date/Time
CST
Wind Sea
Height
m
Swell Vis
km
Cloud Weather Temp
°C
Press
hPa
Rain since
9am
mm
Dir  Spd
kts
Gust
kts
Height
m
Period
s
Dir
19/01:30pm NW 11 13 - - - - 10 Clear - 31.2 1012.6 0.0
19/01:00pm NW 9 11 - - - - 10 - - 30.6 1013.1 0.0
19/12:30pm WNW 9 12 - - - - 10 - - 29.8 1013.8 0.0
19/12:00pm WNW 9 12 - - - - 30 Partly cloudy Smoke 29.9 1014.3 0.0
19/11:30am NW 4 7 - - - - 10 - - 29.9 1014.8 0.0
19/11:00am WNW 5 8 - - - - 10 - - 29.6 1015.4 0.0
19/10:30am WNW 5 9 - - - - 10 - - 29.9 1015.8 0.0
19/10:00am NNE 4 7 - - - - 10 - - 28.8 1016.0 0.0
19/09:30am NNE 3 6 - - - - 10 - - 28.1 1016.2 0.0
19/09:00am N 2 3 - - - - 30 Mostly cloudy Smoke 27.2 1016.3 0.0
19/08:30am E 2 3 - - - - 10 - - 25.7 1016.0 0.0
19/08:00am SSE 2 3 - - - - 10 - - 24.6 1015.9 0.0
19/07:30am SSE 1 2 - - - - 10 - - 21.7 1015.7 0.0
19/07:09am CALM 0 0 - - - - 10 - Shallow fog 20.3 1015.5 0.0
19/07:00am CALM 0 0 - - - - 10 - Fog patches 20.1 1015.4 0.0
19/06:49am CALM 0 0 - - - - 10 - Fog patches 20.3 1015.2 0.0
19/06:39am CALM 0 0 - - - - 6 - - 20.3 1015.0 0.0
19/06:30am CALM 0 0 - - - - 10 - - 20.2 1014.9 0.0
19/06:00am SSE 3 3 - - - - 16 Partly cloudy Shallow fog 21.1 1014.7 0.0
19/05:30am S 3 4 - - - - 10 - - 21.6 1014.7 0.0
19/05:00am S 3 4 - - - - 10 - - 21.0 1014.5 0.0
19/04:30am CALM 0 1 - - - - 10 - - 21.7 1014.5 0.0
19/04:00am ESE 1 3 - - - - 10 - - 21.7 1014.4 0.0
19/03:30am CALM 0 0 - - - - 10 - - 21.5 1014.3 0.0
19/03:00am SW 3 4 - - - - 9 - - 22.0 1014.2 0.0
19/02:30am SW 1 2 - - - - 9 - - 22.3 1014.6 0.0
19/02:00am WSW 1 2 - - - - 9 - - 22.2 1014.8 0.0
19/01:30am W 1 2 - - - - 9 - - 22.9 1015.0 0.0
19/01:00am NW 2 3 - - - - 9 - - 24.2 1015.1 0.0
19/12:30am NW 5 6 - - - - 10 - - 25.1 1015.4 0.0
19/12:00am N 4 5 - - - - 15 Mostly clear Smoke 24.8 1015.7 0.0
 
Date/Time
CST
Wind Sea
Height
m
Swell Vis
km
Cloud Weather Temp
°C
Press
hPa
Rain since
9am
mm
Dir  Spd
kts
Gust
kts
Height
m
Period
s
Dir
18/11:30pm N 3 4 - - - - 10 Mostly clear - 25.0 1015.8 0.0
18/11:00pm NW 6 9 - - - - 10 Mostly clear - 25.6 1015.7 0.0
18/10:30pm NNW 8 10 - - - - 10 Mostly clear - 26.3 1015.7 0.0
18/10:00pm NE 11 14 - - - - 10 Mostly clear - 26.0 1015.5 0.0
18/09:30pm NE 8 11 - - - - 10 - - 25.5 1015.4 0.0
18/09:00pm E 7 9 - - - - 30 Mostly clear Fine 25.9 1015.1 0.0
18/08:30pm E 5 7 - - - - 10 - - 25.9 1014.5 0.0
18/08:00pm ENE 3 4 - - - - 10 - - 26.5 1014.1 0.0
18/07:30pm NNE 4 6 - - - - 10 - - 27.5 1013.5 0.0
18/07:00pm NNW 5 6 - - - - 10 - - 28.6 1013.1 0.0
18/06:30pm NNW 4 7 - - - - 10 - - 29.0 1012.7 0.0
18/06:00pm N 8 11 - - - - 30 Partly cloudy Fine 29.4 1012.5 0.0
18/05:30pm N 10 13 - - - - 10 - - 29.6 1012.3 0.0
18/05:00pm N 11 15 - - - - 10 - - 30.5 1012.1 0.0
18/04:30pm N 11 16 - - - - 10 - - 29.6 1012.2 0.0
18/04:00pm N 10 13 - - - - 10 - - 30.8 1012.4 0.0
18/03:30pm N 10 13 - - - - 10 - - 30.3 1012.5 0.0
18/03:00pm N 13 19 - - - - 28 Partly cloudy Smoke 31.1 1012.8 0.0
18/02:30pm NNW 12 15 - - - - 10 Mostly clear - 30.1 1013.3 0.0
18/02:00pm NNW 11 15 - - - - 10 Mostly clear - 30.7 1013.8 0.0
18/01:30pm NNW 10 14 - - - - 10 Mostly clear - 30.2 1014.2 0.0
18/01:00pm NW 9 13 - - - - 10 Mostly clear - 30.0 1014.7 0.0
18/12:30pm WNW 9 12 - - - - 10 Mostly clear - 29.7 1015.4 0.0
18/12:00pm WNW 9 13 - - - - 29 Mostly cloudy Smoke 30.2 1016.0 0.0
18/11:30am W 5 8 - - - - 10 - - 30.9 1016.7 0.0
18/11:00am ENE 5 12 - - - - 10 Mostly clear - 30.0 1017.2 0.0
18/10:30am E 6 11 - - - - 10 Mostly clear - 29.4 1017.8 0.0
18/10:00am ENE 8 12 - - - - 10 Mostly clear - 29.1 1018.0 0.0
18/09:30am ENE 3 6 - - - - 10 Mostly clear - 27.9 1017.9 0.0
18/09:00am WSW 2 3 - - - - 25 Mostly clear Smoke 27.0 1017.7 0.0
18/08:30am SSW 3 4 - - - - 10 Mostly clear - 25.9 1017.5 0.0
18/08:00am S 2 4 - - - - 10 Mostly clear - 25.4 1017.5 0.0
18/07:30am CALM 0 0 - - - - 10 Mostly clear - 24.5 1017.3 0.0
18/07:15am CALM 0 0 - - - - 10 Mostly clear - 22.6 1017.1 0.0
18/07:00am SE 1 2 - - - - 10 Mostly clear Shallow fog 22.2 1017.0 0.0
18/06:30am ESE 2 2 - - - - 10 Mostly clear - 22.5 1016.9 0.0
18/06:00am SE 1 2 - - - - 16 Mostly clear Haze 22.7 1016.5 0.0
18/05:30am E 2 2 - - - - 10 Mostly clear - 23.2 1016.2 0.0
18/05:00am E 2 2 - - - - 10 Partly cloudy - 24.1 1016.0 0.0
18/04:30am ESE 4 5 - - - - 10 Partly cloudy - 24.2 1015.9 0.0
18/04:00am ESE 2 4 - - - - 10 Partly cloudy - 23.8 1015.6 0.0
18/03:42am SE 4 6 - - - - 10 Partly cloudy - 24.1 1015.3 0.0
18/03:30am ESE 6 7 - - - - 10 Partly cloudy - 24.2 1015.4 0.0
18/03:09am E 6 8 - - - - 10 Partly cloudy - 23.9 1015.6 0.0
18/03:00am E 4 6 - - - - 10 Cloudy - 23.7 1015.7 0.0
18/02:30am CALM 0 0 - - - - 10 Partly cloudy - 23.0 1015.4 0.0
18/02:00am WSW 2 2 - - - - 10 - - 23.8 1015.3 0.0
18/01:30am WSW 3 5 - - - - 10 - - 24.6 1015.4 0.0
18/01:00am WSW 4 6 - - - - 10 - - 24.9 1015.4 0.0
18/12:30am WSW 6 7 - - - - 10 - - 25.1 1015.6 0.0
18/12:00am WSW 6 9 - - - - 20 Clear Haze 25.2 1016.0 0.0
 
Date/Time
CST
Wind Sea
Height
m
Swell Vis
km
Cloud Weather Temp
°C
Press
hPa
Rain since
9am
mm
Dir  Spd
kts
Gust
kts
Height
m
Period
s
Dir
17/11:30pm WSW 8 11 - - - - 10 - - 25.3 1016.0 0.0
17/11:00pm W 9 12 - - - - 10 - - 25.5 1016.2 0.0
17/10:30pm WNW 12 16 - - - - 10 - - 25.9 1016.1 0.0
17/10:00pm N 8 12 - - - - 10 - - 25.6 1015.8 0.0
17/09:30pm CALM 0 1 - - - - 10 - - 25.1 1015.5 0.0
17/09:00pm ESE 2 3 - - - - 30 Mostly clear Fine 25.8 1015.0 0.0
17/08:30pm ESE 2 4 - - - - 10 - - 26.0 1014.6 0.0
17/08:00pm NNE 8 12 - - - - 10 - - 26.5 1013.7 0.0
17/07:30pm NE 11 14 - - - - 10 - - 27.0 1013.3 0.0
17/07:00pm NNE 10 13 - - - - 10 - - 27.3 1013.0 0.0
17/06:30pm NNE 11 16 - - - - 10 - - 27.6 1012.8 0.0
17/06:00pm NNE 13 18 - - - - 30 Mostly clear Fine 28.5 1012.4 0.0
17/05:30pm NNE 12 16 - - - - 10 - - 28.8 1012.2 0.0
17/05:00pm N 14 17 - - - - 10 Mostly clear - 29.3 1011.9 0.0
17/04:30pm N 13 17 - - - - 10 Mostly clear - 30.1 1011.9 0.0
17/04:00pm N 14 18 - - - - 10 Mostly clear - 29.7 1012.0 0.0
17/03:30pm NNE 13 17 - - - - 10 - - 29.9 1012.4 0.0
17/03:00pm N 12 15 - - - - 25 Partly cloudy Smoke 30.2 1012.5 0.0
17/02:30pm N 12 16 - - - - 10 - - 30.4 1012.9 0.0
17/02:00pm NNW 11 15 - - - - 10 - - 30.8 1013.4 0.0
17/01:30pm NW 11 14 - - - - 10 - - 29.9 1013.9 0.0
17/01:00pm WNW 12 16 - - - - 10 Partly cloudy - 30.1 1014.4 0.0
17/12:30pm W 11 16 - - - - 10 - - 32.6 1014.9 0.0
17/12:00pm ESE 8 17 - - - - 25 Partly cloudy Smoke 31.1 1015.3 0.0
17/11:30am E 6 13 - - - - 10 - - 30.9 1015.9 0.0
17/11:00am E 10 14 - - - - 10 - - 30.3 1016.5 0.0
17/10:30am ENE 9 14 - - - - 10 - - 29.6 1016.7 0.0
17/10:00am ENE 9 13 - - - - 10 - - 28.4 1017.1 0.0
17/09:30am ENE 7 11 - - - - 10 Mostly clear - 27.5 1017.1 0.0
17/09:00am NE 4 8 - - - - 25 Partly cloudy Smoke 26.3 1016.9 0.0
17/08:30am ESE 3 6 - - - - 10 - - 25.3 1016.7 0.0
17/08:00am SE 4 6 - - - - 10 - - 24.3 1016.4 0.0
17/07:30am SE 3 4 - - - - 10 - - 23.4 1016.4 0.0
17/07:00am ESE 3 3 - - - - 10 Mostly clear - 22.4 1016.2 0.0
17/06:30am SSE 3 4 - - - - 10 Mostly cloudy - 22.8 1015.9 0.0
17/06:00am SE 2 3 - - - - 20 Mostly clear Smoke 22.3 1015.6 0.0
17/05:30am ENE 3 4 - - - - 10 Mostly clear - 22.3 1015.4 0.0
17/05:00am ESE 3 4 - - - - 10 Partly cloudy - 23.1 1015.1 0.0
17/04:30am E 3 4 - - - - 10 Partly cloudy - 23.0 1014.8 0.0
17/04:00am E 1 2 - - - - 10 Partly cloudy - 22.8 1014.3 0.0
17/03:30am E 2 4 - - - - 10 Cloudy - 22.3 1014.2 0.0
17/03:00am ENE 3 4 - - - - 10 Mostly clear - 20.7 1014.0 0.0
17/02:30am NE 1 2 - - - - 10 - - 20.6 1013.9 0.0
17/02:00am ENE 1 2 - - - - 10 - - 21.0 1014.1 0.0
17/01:30am CALM 0 2 - - - - 10 - - 21.6 1014.4 0.0
17/01:00am NW 1 3 - - - - 10 - - 22.0 1014.6 0.0
17/12:30am NW 2 3 - - - - 10 - - 21.7 1014.8 0.0
17/12:00am NNW 3 3 - - - - 23 Mostly cloudy Smoke 22.3 1015.0 0.0
 
Date/Time
CST
Wind Sea
Height
m
Swell Vis
km
Cloud Weather Temp
°C
Press
hPa
Rain since
9am
mm
Dir  Spd
kts
Gust
kts
Height
m
Period
s
Dir
16/11:30pm N 3 3 - - - - 10 Mostly clear - 22.6 1015.0 0.0
16/11:00pm N 4 6 - - - - 10 Mostly clear - 22.5 1015.0 0.0
16/10:30pm NNE 4 5 - - - - 10 Mostly clear - 22.4 1015.1 0.0
16/10:00pm ESE 4 5 - - - - 10 - - 23.3 1014.9 0.0
16/09:30pm E 3 4 - - - - 10 - - 23.9 1014.4 0.0
16/09:00pm N 1 3 - - - - 30 Partly cloudy Smoke 24.5 1013.8 0.0
16/08:30pm N 3 4 - - - - 10 - - 25.4 1013.2 0.0
16/08:00pm NNE 7 11 - - - - 10 - - 25.5 1013.0 0.0
16/07:30pm NNE 9 13 - - - - 10 - - 26.0 1012.7 0.0
16/07:00pm NNE 11 14 - - - - 10 - - 26.6 1012.4 0.0
16/06:30pm NNE 10 14 - - - - 10 - - 27.2 1012.0 0.0
16/06:00pm NNE 13 18 - - - - 28 Partly cloudy Smoke 27.7 1011.9 0.0
16/05:30pm NNE 13 17 - - - - 10 - - 28.3 1011.7 0.0
16/05:00pm NNE 13 19 - - - - 10 - - 28.7 1011.6 0.0
16/04:30pm NNE 13 17 - - - - 10 Mostly clear - 29.1 1011.5 0.0
16/04:00pm NNE 12 15 - - - - 10 Mostly clear - 29.0 1011.8 0.0
16/03:30pm N 12 16 - - - - 10 - - 29.6 1012.0 0.0
16/03:00pm N 11 15 - - - - 20 Mostly cloudy Smoke 29.7 1012.2 0.0
16/02:30pm N 10 15 - - - - 10 - - 29.7 1012.5 0.0
16/02:00pm NNW 10 14 - - - - 10 - - 29.6 1012.9 0.0

Other formats

Comma delimited format used in spreadsheet applications
http://www.bom.gov.au/fwo/IDD60701/IDD60701.94120.axf

JavaScript Object Notation format (JSON) in row-major order
http://www.bom.gov.au/fwo/IDD60701/IDD60701.94120.json

Data quality

Most of these data are generated automatically and are frequently updated. Quality checks on data are not normally performed. It is possible for incorrect values to appear. Refer to information at About Latest Weather Observations and please check the disclaimer before using these data.